Time;durP1;ratioP1;P1;durP2;ratioP2;P2;SDS_P1;SDS_P2;PMS_P1;PMS_P2;Temp;Humidity;BMP_temperature;BMP_pressure;BME280_temperature;BME280_humidity;BME280_pressure;Samples;Min_cycle;Max_cycle;Signal;HPM_P1;HPM_P2
2023/04/23 00:00:12;;;;;;;13.30;7.30;;;;;;;9.14;62.78;99487.54;218939;1257;138827;-70
2023/04/23 00:05:38;;;;;;;12.20;8.60;;;;;;;9.03;62.59;99489.68;217666;1257;139997;-70
2023/04/23 00:10:42;;;;;;;14.10;8.80;;;;;;;8.94;62.56;99480.95;219264;1256;139340;-72
2023/04/23 00:15:46;;;;;;;15.10;8.20;;;;;;;8.90;62.45;99477.91;217967;1257;139729;-69
2023/04/23 00:20:49;;;;;;;12.30;9.90;;;;;;;8.87;62.20;99472.86;218470;1257;138905;-71
2023/04/23 00:25:53;;;;;;;11.80;8.10;;;;;;;8.84;62.23;99470.84;217844;1259;138696;-77
2023/04/23 00:30:57;;;;;;;12.20;7.30;;;;;;;8.80;62.35;99470.01;218123;1257;138672;-70
2023/04/23 00:36:00;;;;;;;12.70;9.10;;;;;;;8.73;62.44;99464.88;218273;1257;139791;-74
2023/04/23 00:41:04;;;;;;;11.60;9.00;;;;;;;8.64;62.61;99465.88;217714;1257;140902;-79
2023/04/23 00:46:07;;;;;;;17.80;10.10;;;;;;;8.56;62.73;99462.40;217760;1257;138755;-80
2023/04/23 00:51:11;;;;;;;15.00;10.40;;;;;;;8.51;62.80;99460.77;217704;1257;139862;-75
2023/04/23 00:56:16;;;;;;;14.10;10.60;;;;;;;8.44;62.62;99455.40;217922;1259;139524;-77
2023/04/23 01:01:20;;;;;;;16.40;10.50;;;;;;;8.37;62.80;99458.52;218560;1257;140012;-71
2023/04/23 01:06:24;;;;;;;11.40;7.80;;;;;;;8.34;63.05;99457.46;217977;1257;139905;-71
2023/04/23 01:11:28;;;;;;;9.80;7.20;;;;;;;8.33;63.17;99456.92;219429;1257;138991;-72
2023/04/23 01:16:31;;;;;;;8.20;7.40;;;;;;;8.34;63.18;99455.79;220140;1256;139265;-80
2023/04/23 01:21:36;;;;;;;10.40;7.60;;;;;;;8.35;63.21;99455.65;217849;1257;139488;-72
2023/04/23 01:26:41;;;;;;;12.60;9.20;;;;;;;8.33;63.18;99453.41;219580;1257;544751;-79
2023/04/23 01:31:45;;;;;;;12.90;8.60;;;;;;;8.28;63.13;99450.11;218868;1257;140595;-74
2023/04/23 01:36:51;;;;;;;15.40;8.30;;;;;;;8.23;63.24;99448.90;218849;1260;140469;-74
2023/04/23 01:41:55;;;;;;;14.60;8.60;;;;;;;8.16;63.11;99449.98;217969;1257;141309;-75
2023/04/23 01:47:00;;;;;;;14.70;9.10;;;;;;;8.09;63.42;99449.79;217781;1257;139640;-71
2023/04/23 01:52:03;;;;;;;13.20;8.80;;;;;;;8.03;63.51;99451.65;217821;1259;141023;-77
2023/04/23 01:57:06;;;;;;;10.70;7.80;;;;;;;8.01;63.37;99451.80;218245;1259;142686;-74
2023/04/23 02:02:12;;;;;;;10.40;7.30;;;;;;;7.97;63.71;99453.44;218478;1256;139785;-75
2023/04/23 02:07:15;;;;;;;15.00;9.60;;;;;;;7.93;63.56;99449.65;217978;1260;139963;-79
2023/04/23 02:12:19;;;;;;;18.70;10.10;;;;;;;7.89;63.48;99444.27;217995;1257;139842;-79
2023/04/23 02:17:21;;;;;;;16.00;8.90;;;;;;;7.85;63.42;99442.77;217752;1259;140120;-79
2023/04/23 02:22:25;;;;;;;12.80;9.00;;;;;;;7.76;63.39;99435.23;218704;1256;140100;-82
2023/04/23 02:27:32;;;;;;;15.70;9.10;;;;;;;7.72;63.95;99430.21;218046;1257;140217;-72
2023/04/23 02:32:36;;;;;;;15.50;9.90;;;;;;;7.70;63.66;99429.80;217738;1256;140071;-83
2023/04/23 02:37:39;;;;;;;14.10;7.40;;;;;;;7.67;63.81;99430.98;217549;1257;139774;-70
2023/04/23 02:42:46;;;;;;;11.40;8.30;;;;;;;7.62;63.91;99425.38;217835;1257;139470;-70
2023/04/23 02:47:49;;;;;;;12.70;8.80;;;;;;;7.58;63.66;99424.05;217720;1257;140779;-77
2023/04/23 02:52:51;;;;;;;11.20;8.60;;;;;;;7.56;64.11;99424.27;217508;1257;139554;-81
2023/04/23 02:57:54;;;;;;;10.90;8.00;;;;;;;7.54;64.21;99424.25;217529;1257;139580;-75
2023/04/23 03:02:57;;;;;;;16.90;9.30;;;;;;;7.53;64.20;99421.77;217434;1257;140582;-71
2023/04/23 03:08:00;;;;;;;11.00;7.70;;;;;;;7.49;64.21;99423.16;220392;1256;139659;-72
2023/04/23 03:13:03;;;;;;;13.40;9.80;;;;;;;7.46;64.34;99421.64;219919;1255;142360;-75
2023/04/23 03:18:07;;;;;;;13.60;9.10;;;;;;;7.46;64.48;99421.57;220123;1257;141515;-76
2023/04/23 03:23:11;;;;;;;9.90;8.40;;;;;;;7.42;64.38;99419.60;219677;1256;140309;-75
2023/04/23 03:28:14;;;;;;;12.60;9.60;;;;;;;7.41;64.36;99417.66;218853;1256;141081;-74
2023/04/23 03:33:18;;;;;;;16.20;10.10;;;;;;;7.39;64.15;99412.09;220429;1255;140598;-72
2023/04/23 03:38:20;;;;;;;12.90;9.80;;;;;;;7.38;64.61;99409.15;217968;1260;141982;-73
2023/04/23 03:43:23;;;;;;;11.90;8.50;;;;;;;7.42;64.75;99407.94;219016;1256;140056;-78
2023/04/23 03:48:25;;;;;;;16.30;10.30;;;;;;;7.56;64.53;99409.83;218133;1256;140129;-73
2023/04/23 03:53:30;;;;;;;18.10;10.20;;;;;;;7.70;64.47;99406.65;217833;1257;140203;-74
2023/04/23 03:58:32;;;;;;;13.90;9.30;;;;;;;8.12;64.30;99398.64;218255;1257;140239;-74
2023/04/23 04:03:35;;;;;;;14.70;10.90;;;;;;;8.60;63.50;99400.41;217791;1260;140527;-74
2023/04/23 04:08:40;;;;;;;12.30;9.30;;;;;;;8.71;63.31;99394.35;218497;1257;140954;-75
2023/04/23 04:13:43;;;;;;;13.40;8.80;;;;;;;8.65;63.09;99395.55;218077;1260;139831;-74
2023/04/23 04:18:47;;;;;;;13.20;10.00;;;;;;;8.58;63.25;99393.67;218012;1260;141033;-73
2023/04/23 04:23:52;;;;;;;16.20;10.50;;;;;;;8.54;63.19;99390.80;218378;1257;140318;-73
2023/04/23 04:28:57;;;;;;;13.80;10.00;;;;;;;8.61;63.34;99389.88;217731;1260;140041;-73
2023/04/23 04:34:00;;;;;;;12.10;9.70;;;;;;;8.75;63.43;99388.91;218136;1260;140846;-73
2023/04/23 04:39:04;;;;;;;14.70;11.40;;;;;;;8.90;63.36;99389.73;218582;1257;139947;-74
2023/04/23 04:44:07;;;;;;;14.10;8.70;;;;;;;9.04;63.36;99390.52;219710;1258;142095;-76
2023/04/23 04:49:11;;;;;;;17.00;9.70;;;;;;;9.20;63.25;99394.21;218998;1260;140260;-75
2023/04/23 04:54:15;;;;;;;11.30;9.20;;;;;;;9.37;63.08;99401.76;218135;1257;143692;-74
2023/04/23 04:59:18;;;;;;;16.20;9.60;;;;;;;9.56;62.87;99400.38;219222;1260;139843;-74
2023/04/23 05:04:21;;;;;;;12.40;8.50;;;;;;;9.75;62.79;99400.44;219981;1258;140893;-74
2023/04/23 05:09:24;;;;;;;14.30;8.50;;;;;;;9.93;62.48;99400.71;219799;1257;139798;-75
2023/04/23 05:14:27;;;;;;;12.50;9.20;;;;;;;10.11;62.29;99395.77;218741;1260;140071;-75
2023/04/23 05:19:34;;;;;;;9.80;8.60;;;;;;;10.29;62.15;99391.44;220008;1257;140165;-73
2023/04/23 05:24:37;;;;;;;11.10;9.30;;;;;;;10.51;61.94;99396.15;217687;1260;139735;-73
2023/04/23 05:29:41;;;;;;;11.10;9.90;;;;;;;11.05;61.13;99394.64;218491;1260;140171;-73
2023/04/23 05:34:45;;;;;;;10.90;8.90;;;;;;;11.91;60.19;99386.73;218275;1260;141317;-77
2023/04/23 05:39:49;;;;;;;14.60;8.80;;;;;;;12.61;59.24;99387.10;219032;1260;140353;-70
2023/04/23 05:44:53;;;;;;;16.20;10.50;;;;;;;12.68;58.78;99387.84;218569;1256;210198;-76
2023/04/23 05:49:57;;;;;;;9.70;8.70;;;;;;;12.97;58.15;99390.28;218803;1257;139577;-74
2023/04/23 05:55:01;;;;;;;10.80;8.90;;;;;;;13.31;57.84;99396.16;217824;1260;139950;-75
2023/04/23 06:00:08;;;;;;;12.50;9.00;;;;;;;13.31;57.44;99396.70;217988;1257;139376;-74
2023/04/23 06:05:13;;;;;;;11.40;8.60;;;;;;;13.33;57.31;99391.79;218015;1260;139973;-73
2023/04/23 06:10:17;;;;;;;13.70;8.70;;;;;;;13.41;56.78;99389.10;218294;1256;140412;-75
2023/04/23 06:15:19;;;;;;;21.70;9.10;;;;;;;13.39;56.57;99388.71;218156;1260;139978;-74
2023/04/23 06:20:22;;;;;;;13.90;9.90;;;;;;;13.40;56.30;99387.23;217815;1258;140466;-73
2023/04/23 06:25:25;;;;;;;16.10;9.40;;;;;;;13.46;56.49;99385.24;218394;1257;139916;-73
2023/04/23 06:30:29;;;;;;;14.70;11.00;;;;;;;13.55;56.40;99384.27;217866;1260;139266;-77
2023/04/23 06:35:32;;;;;;;11.30;7.10;;;;;;;13.70;56.53;99384.54;218635;1257;140382;-78
2023/04/23 06:40:35;;;;;;;14.40;9.10;;;;;;;14.32;56.36;99385.34;217739;1260;139447;-75
2023/04/23 06:45:39;;;;;;;9.10;6.90;;;;;;;15.33;55.94;99390.63;217810;1257;139239;-73
2023/04/23 06:50:44;;;;;;;11.40;9.70;;;;;;;16.57;54.66;99381.91;217671;1260;228959;-73
2023/04/23 06:55:49;;;;;;;9.60;8.60;;;;;;;18.31;53.63;99377.41;217481;1263;139475;-75
2023/04/23 07:00:53;;;;;;;10.40;9.10;;;;;;;19.83;51.60;99374.16;219187;1257;139445;-74
2023/04/23 07:05:56;;;;;;;15.00;9.50;;;;;;;20.97;49.34;99369.13;218590;1257;139268;-74
2023/04/23 07:10:59;;;;;;;22.30;9.60;;;;;;;21.25;47.71;99369.00;218043;1257;141873;-74
2023/04/23 07:16:02;;;;;;;23.60;9.70;;;;;;;21.20;48.12;99367.88;217896;1260;139617;-74
2023/04/23 07:21:05;;;;;;;11.10;8.90;;;;;;;21.21;48.01;99369.77;218736;1258;140259;-74
2023/04/23 07:26:08;;;;;;;10.10;8.40;;;;;;;21.47;48.10;99368.66;217650;1260;139778;-75
2023/04/23 07:31:10;;;;;;;13.10;8.30;;;;;;;21.93;47.74;99366.45;218025;1259;139230;-76
2023/04/23 07:36:13;;;;;;;13.00;7.90;;;;;;;22.21;46.81;99362.84;218013;1260;139703;-74
2023/04/23 07:41:16;;;;;;;9.10;8.00;;;;;;;22.28;46.27;99355.55;217907;1257;139528;-74
2023/04/23 07:46:23;;;;;;;10.40;8.20;;;;;;;22.26;45.70;99353.71;218157;1258;138567;-74
2023/04/23 07:51:27;;;;;;;9.70;8.30;;;;;;;22.33;45.93;99350.11;218068;1257;139963;-74
2023/04/23 07:56:31;;;;;;;12.50;6.90;;;;;;;22.39;45.19;99352.62;217644;1257;138924;-75
2023/04/23 08:01:33;;;;;;;9.10;7.50;;;;;;;22.45;45.18;99348.62;217698;1257;139090;-75
2023/04/23 08:06:35;;;;;;;10.10;8.00;;;;;;;22.47;45.05;99343.95;217371;1260;139772;-72
2023/04/23 08:11:38;;;;;;;12.80;7.40;;;;;;;22.68;45.55;99349.27;217636;1256;140266;-75
2023/04/23 08:16:41;;;;;;;8.90;7.90;;;;;;;22.89;44.40;99345.45;218107;1260;139947;-75
2023/04/23 08:21:43;;;;;;;9.20;7.20;;;;;;;22.98;44.82;99349.00;217589;1258;139839;-75
2023/04/23 08:26:49;;;;;;;;;;;;;;;23.06;44.70;99346.61;217618;1258;139978;-75
2023/04/23 08:31:50;;;;;;;10.30;7.50;;;;;;;23.28;44.78;99340.16;217939;1258;127342;-75
2023/04/23 08:36:53;;;;;;;7.60;6.50;;;;;;;23.34;44.15;99333.60;217687;1257;140414;-76
2023/04/23 08:41:55;;;;;;;7.10;5.70;;;;;;;23.42;43.97;99332.83;218702;1256;139126;-76
2023/04/23 08:47:02;;;;;;;11.30;6.70;;;;;;;23.44;43.28;99332.82;217919;1257;140272;-75
2023/04/23 08:52:16;;;;;;;5.80;5.30;;;;;;;23.39;42.47;99327.56;217547;1260;139723;-75
2023/04/23 08:57:18;;;;;;;5.30;4.70;;;;;;;23.37;41.75;99321.33;220104;1257;139401;-76
2023/04/23 09:02:21;;;;;;;10.50;5.70;;;;;;;23.28;40.70;99315.46;217879;1257;139797;-75
2023/04/23 09:07:24;;;;;;;4.80;3.50;;;;;;;23.25;40.62;99310.55;219049;1260;139925;-75
2023/04/23 09:12:28;;;;;;;5.10;4.60;;;;;;;23.14;40.01;99304.14;217586;1257;139014;-75
2023/04/23 09:17:32;;;;;;;12.10;4.70;;;;;;;23.27;40.91;99302.45;219771;1256;139592;-76
2023/04/23 09:22:55;;;;;;;6.30;4.90;;;;;;;23.51;40.69;99297.27;218026;1260;140588;-75
2023/04/23 09:28:00;;;;;;;5.70;5.10;;;;;;;23.65;39.86;99291.89;217631;1257;161420;-75
2023/04/23 09:33:04;;;;;;;8.50;4.70;;;;;;;23.41;39.43;99289.11;217636;1257;139762;-75
2023/04/23 09:38:09;;;;;;;4.70;4.30;;;;;;;23.57;39.99;99285.92;217424;1260;141324;-75
2023/04/23 09:43:12;;;;;;;8.80;4.10;;;;;;;23.65;39.31;99285.69;217847;1257;139910;-74
2023/04/23 09:48:14;;;;;;;4.20;3.70;;;;;;;23.80;39.54;99270.31;218153;1256;139529;-73
2023/04/23 09:53:19;;;;;;;7.90;3.90;;;;;;;23.99;39.24;99261.55;217505;1257;138882;-76
2023/04/23 09:58:24;;;;;;;6.60;4.10;;;;;;;24.08;38.78;99256.22;217738;1257;139308;-75
2023/04/23 10:03:28;;;;;;;4.20;3.50;;;;;;;23.94;38.00;99247.31;217677;1257;139336;-75
2023/04/23 10:08:31;;;;;;;4.40;3.60;;;;;;;23.89;37.14;99237.79;217697;1257;140088;-75
2023/04/23 10:13:39;;;;;;;5.20;4.20;;;;;;;23.68;37.12;99235.20;217701;1257;140185;-75
2023/04/23 10:18:42;;;;;;;5.50;3.80;;;;;;;23.88;37.05;99233.80;217596;1256;139390;-75
2023/04/23 10:23:47;;;;;;;4.80;4.40;;;;;;;23.83;36.44;99229.50;217618;1257;140457;-75
2023/04/23 10:28:52;;;;;;;4.60;2.80;;;;;;;23.75;36.79;99217.73;217655;1259;138918;-75
2023/04/23 10:33:55;;;;;;;8.00;4.00;;;;;;;23.81;36.83;99217.77;218173;1257;139302;-75
2023/04/23 10:39:03;;;;;;;;;;;;;;;24.01;37.37;99211.63;217358;1256;139784;-75
2023/04/23 10:44:06;;;;;;;10.60;4.90;;;;;;;24.07;36.76;99208.73;218168;1259;125493;-72
2023/04/23 10:49:15;;;;;;;5.20;4.10;;;;;;;24.16;37.37;99202.63;218921;1257;139472;-76
2023/04/23 10:54:18;;;;;;;6.70;3.50;;;;;;;24.37;37.99;99200.81;217840;1256;139166;-76
2023/04/23 10:59:21;;;;;;;10.00;4.50;;;;;;;24.40;37.31;99200.98;217520;1257;139664;-75
2023/04/23 11:04:27;;;;;;;5.80;4.20;;;;;;;24.54;37.25;99198.94;217701;1257;139290;-76
2023/04/23 11:09:33;;;;;;;6.10;4.40;;;;;;;24.15;36.95;99192.52;217899;1257;140201;-76
2023/04/23 11:14:37;;;;;;;4.40;3.30;;;;;;;24.12;37.12;99187.36;217870;1256;139231;-77
2023/04/23 11:19:41;;;;;;;4.10;3.40;;;;;;;24.41;37.29;99188.19;217935;1256;152952;-77
2023/04/23 11:24:45;;;;;;;9.20;3.80;;;;;;;24.61;36.43;99182.43;218196;1259;249906;-76
2023/04/23 11:29:52;;;;;;;4.00;3.50;;;;;;;24.38;36.05;99175.95;217793;1256;138906;-73
2023/04/23 11:34:57;;;;;;;6.70;3.30;;;;;;;24.22;35.78;99167.14;218499;1260;138671;-75
2023/04/23 11:40:08;;;;;;;4.70;3.20;;;;;;;24.02;36.09;99163.80;217344;1256;138927;-78
2023/04/23 11:45:22;;;;;;;4.10;3.70;;;;;;;24.17;36.40;99160.42;217616;1257;139859;-75
2023/04/23 11:50:29;;;;;;;9.60;3.90;;;;;;;24.05;35.71;99158.48;217592;1260;139812;-77
2023/04/23 11:55:31;;;;;;;5.00;3.00;;;;;;;24.07;35.92;99160.89;217593;1260;140221;-77
2023/04/23 12:00:33;;;;;;;4.20;3.60;;;;;;;24.08;35.94;99160.37;217577;1257;139945;-72
2023/04/23 12:05:41;;;;;;;5.20;3.20;;;;;;;24.06;35.99;99156.36;217748;1257;139514;-75
2023/04/23 12:10:50;;;;;;;7.80;4.00;;;;;;;24.08;35.97;99154.84;217653;1257;140318;-78
2023/04/23 12:15:56;;;;;;;11.50;3.70;;;;;;;24.06;35.60;99148.61;217645;1256;139809;-78
2023/04/23 12:21:09;;;;;;;3.90;3.60;;;;;;;24.00;35.32;99141.02;217524;1257;140209;-76
2023/04/23 12:26:15;;;;;;;6.50;3.40;;;;;;;24.13;35.71;99143.17;218813;1256;140220;-75
2023/04/23 12:31:26;;;;;;;4.20;3.20;;;;;;;24.10;35.40;99135.07;217780;1257;140168;-77
2023/04/23 12:36:32;;;;;;;5.80;4.30;;;;;;;24.11;35.63;99126.95;217656;1257;139660;-73
2023/04/23 12:41:35;;;;;;;4.30;3.30;;;;;;;23.86;35.33;99119.02;217592;1256;139346;-77
2023/04/23 12:46:37;;;;;;;4.20;3.90;;;;;;;23.75;35.43;99121.55;217536;1257;139262;-77
2023/04/23 12:51:40;;;;;;;5.90;3.10;;;;;;;23.94;36.03;99119.45;218803;1257;140924;-78
2023/04/23 12:56:42;;;;;;;6.60;3.70;;;;;;;24.11;35.84;99119.33;217786;1257;140220;-75
2023/04/23 13:01:44;;;;;;;3.10;2.80;;;;;;;24.18;35.33;99112.31;217817;1260;139794;-76
2023/04/23 13:06:47;;;;;;;3.80;3.50;;;;;;;24.17;35.02;99109.45;217745;1256;140125;-74
2023/04/23 13:11:50;;;;;;;3.40;2.90;;;;;;;23.89;35.21;99106.83;217510;1259;140505;-72
2023/04/23 13:16:53;;;;;;;3.70;3.30;;;;;;;23.84;35.18;99099.89;217582;1257;140932;-71
2023/04/23 13:21:55;;;;;;;4.10;3.80;;;;;;;24.07;35.27;99097.55;217711;1256;139265;-74
2023/04/23 13:26:58;;;;;;;7.50;3.60;;;;;;;24.23;35.00;99083.84;217549;1257;232304;-75
2023/04/23 13:32:00;;;;;;;3.70;3.30;;;;;;;24.26;35.06;99077.95;217326;1260;139724;-78
2023/04/23 13:37:04;;;;;;;4.30;4.00;;;;;;;24.32;34.87;99072.63;217791;1259;139652;-74
2023/04/23 13:42:06;;;;;;;5.70;3.70;;;;;;;24.19;34.16;99067.08;217658;1257;139217;-74
2023/04/23 13:47:12;;;;;;;10.80;3.60;;;;;;;23.89;34.38;99071.58;217631;1256;140017;-72
2023/04/23 13:52:14;;;;;;;3.00;2.70;;;;;;;23.84;34.74;99065.38;218135;1256;139240;-79
2023/04/23 13:57:17;;;;;;;3.20;2.50;;;;;;;23.75;34.44;99061.61;218524;1259;140421;-75
2023/04/23 14:02:21;;;;;;;3.80;3.40;;;;;;;23.63;34.11;99054.02;217532;1256;139242;-77
2023/04/23 14:07:25;;;;;;;7.00;3.40;;;;;;;23.57;34.60;99049.30;217999;1257;138990;-79
2023/04/23 14:12:30;;;;;;;3.50;3.20;;;;;;;23.61;34.66;99048.10;217769;1258;139629;-76
2023/04/23 14:17:34;;;;;;;3.90;3.50;;;;;;;23.57;34.51;99042.83;218383;1257;140805;-75
2023/04/23 14:22:39;;;;;;;6.60;3.50;;;;;;;23.44;34.25;99042.64;217914;1256;139629;-73
2023/04/23 14:27:50;;;;;;;5.10;3.40;;;;;;;23.39;34.45;99035.70;217378;1257;143085;-73
2023/04/23 14:32:55;;;;;;;7.60;3.40;;;;;;;23.51;34.69;99031.13;217562;1257;139962;-74
2023/04/23 14:37:58;;;;;;;3.60;2.80;;;;;;;23.63;34.81;99028.29;217375;1257;140023;-71
2023/04/23 14:43:02;;;;;;;3.40;3.10;;;;;;;23.70;34.74;99025.88;220728;1256;140152;-79
2023/04/23 14:48:17;;;;;;;5.50;3.00;;;;;;;23.68;34.65;99024.55;220585;1256;138960;-73
2023/04/23 14:53:21;;;;;;;3.20;3.00;;;;;;;23.63;34.47;99020.76;218866;1255;140613;-75
2023/04/23 14:58:24;;;;;;;4.10;3.80;;;;;;;23.66;34.77;99023.27;217709;1259;140860;-77
2023/04/23 15:03:30;;;;;;;6.70;3.10;;;;;;;23.62;34.57;99024.38;217712;1259;138868;-73
2023/04/23 15:08:38;;;;;;;4.60;3.40;;;;;;;23.49;34.54;99018.17;218512;1257;139393;-77
2023/04/23 15:14:00;;;;;;;3.40;3.20;;;;;;;23.38;34.94;99016.61;217559;1255;138803;-78
2023/04/23 15:19:05;;;;;;;3.60;3.30;;;;;;;23.24;35.46;99013.72;217979;1256;140007;-78
2023/04/23 15:24:08;;;;;;;5.00;3.80;;;;;;;23.14;35.69;99008.88;217639;1256;139540;-82
2023/04/23 15:29:12;;;;;;;4.30;3.40;;;;;;;22.87;35.88;99003.26;217603;1259;139631;-72
2023/04/23 15:34:16;;;;;;;4.80;3.90;;;;;;;22.62;36.06;99002.17;217882;1257;140094;-74
2023/04/23 15:39:20;;;;;;;3.70;2.70;;;;;;;22.37;36.49;99003.61;217597;1259;138805;-75
2023/04/23 15:44:25;;;;;;;4.20;3.70;;;;;;;22.23;36.72;99001.09;217618;1256;138906;-73
2023/04/23 15:49:30;;;;;;;5.80;2.90;;;;;;;22.16;36.69;98995.61;217624;1257;139819;-72
2023/04/23 15:54:32;;;;;;;6.10;3.40;;;;;;;21.96;36.99;98997.43;218172;1257;138869;-74
2023/04/23 15:59:36;;;;;;;4.50;3.00;;;;;;;21.73;37.08;98999.64;217297;1256;140856;-71
2023/04/23 16:04:42;;;;;;;5.80;3.10;;;;;;;21.52;37.47;98996.81;218224;1256;139692;-75
2023/04/23 16:09:45;;;;;;;5.80;3.40;;;;;;;21.39;38.22;98996.23;218205;1259;140215;-78
2023/04/23 16:14:50;;;;;;;4.80;3.60;;;;;;;21.23;38.78;98995.84;218760;1256;139059;-73
2023/04/23 16:19:53;;;;;;;4.30;4.00;;;;;;;21.02;39.28;98992.46;217760;1259;138794;-70
2023/04/23 16:24:56;;;;;;;4.70;3.50;;;;;;;20.82;39.51;98987.07;217767;1259;139363;-73
2023/04/23 16:30:01;;;;;;;3.50;3.30;;;;;;;20.67;40.16;98982.94;217580;1257;139716;-74
2023/04/23 16:35:04;;;;;;;4.10;3.80;;;;;;;20.55;40.90;98996.47;217609;1256;139097;-73
2023/04/23 16:40:08;;;;;;;10.60;4.30;;;;;;;20.31;41.03;99011.46;220523;1256;142287;-73
2023/04/23 16:45:10;;;;;;;7.70;3.40;;;;;;;20.04;41.84;99014.91;220563;1256;139373;-73
2023/04/23 16:50:14;;;;;;;4.50;3.30;;;;;;;19.73;42.75;99024.30;219508;1257;139924;-76
2023/04/23 16:55:17;;;;;;;5.50;3.80;;;;;;;19.54;43.62;99034.71;217799;1259;138686;-77
2023/04/23 17:00:23;;;;;;;6.60;5.40;;;;;;;19.37;45.01;99034.44;218100;1257;139880;-74
2023/04/23 17:05:31;;;;;;;11.50;5.30;;;;;;;19.07;47.73;99026.11;217970;1259;139585;-75
2023/04/23 17:10:35;;;;;;;10.40;5.40;;;;;;;18.71;49.44;99013.35;218007;1257;140381;-80
2023/04/23 17:15:37;;;;;;;6.40;5.30;;;;;;;18.30;51.13;99015.09;217802;1256;140532;-74
2023/04/23 17:20:39;;;;;;;5.40;4.90;;;;;;;18.03;52.46;99019.23;217468;1257;138901;-77
2023/04/23 17:25:46;;;;;;;4.90;4.40;;;;;;;17.80;53.78;99018.02;217674;1256;139987;-74
2023/04/23 17:30:49;;;;;;;5.70;5.20;;;;;;;17.56;54.78;99019.38;217698;1257;139232;-76
2023/04/23 17:35:52;;;;;;;6.50;5.30;;;;;;;17.32;55.59;99018.13;217449;1259;230115;-73
2023/04/23 17:40:55;;;;;;;5.40;4.70;;;;;;;17.03;56.42;99020.88;217503;1257;140528;-76
2023/04/23 17:45:57;;;;;;;4.10;3.70;;;;;;;16.78;57.64;99024.02;217497;1257;139494;-76
2023/04/23 17:51:01;;;;;;;5.10;4.60;;;;;;;16.45;58.78;99025.38;217820;1259;139396;-75
2023/04/23 17:56:03;;;;;;;5.20;4.00;;;;;;;16.03;59.81;99030.45;217682;1257;139248;-73
2023/04/23 18:01:08;;;;;;;4.20;3.80;;;;;;;15.76;60.81;99032.97;218173;1256;139621;-73
2023/04/23 18:06:12;;;;;;;4.80;4.40;;;;;;;15.66;61.63;99038.11;217478;1257;139480;-75
2023/04/23 18:11:14;;;;;;;5.60;4.40;;;;;;;15.62;62.05;99037.63;218192;1257;140174;-75
2023/04/23 18:16:16;;;;;;;5.00;4.60;;;;;;;15.55;62.22;99043.11;217309;1257;139885;-74
2023/04/23 18:21:19;;;;;;;5.00;4.50;;;;;;;15.45;62.17;99045.66;217876;1257;139852;-74
2023/04/23 18:26:21;;;;;;;7.70;5.90;;;;;;;15.32;62.27;99047.17;218070;1259;139549;-74
2023/04/23 18:31:23;;;;;;;5.20;4.60;;;;;;;15.17;62.37;99046.94;218611;1258;139883;-75
2023/04/23 18:36:30;;;;;;;5.80;5.00;;;;;;;15.02;62.74;99050.91;219967;1256;140481;-74
2023/04/23 18:41:33;;;;;;;5.00;4.60;;;;;;;14.89;63.18;99051.98;220457;1256;140898;-74
2023/04/23 18:46:35;;;;;;;5.40;4.80;;;;;;;14.79;63.51;99055.32;219218;1256;140806;-74
2023/04/23 18:51:44;;;;;;;6.80;6.00;;;;;;;14.69;64.12;99057.21;217966;1259;140336;-71
2023/04/23 18:56:46;;;;;;;10.30;5.40;;;;;;;14.53;64.34;99056.72;218528;1259;139353;-74
2023/04/23 19:01:48;;;;;;;5.50;5.00;;;;;;;14.39;64.54;99065.14;218056;1259;140679;-74
2023/04/23 19:06:51;;;;;;;6.00;5.50;;;;;;;14.23;64.72;99062.73;217690;1257;140890;-73
2023/04/23 19:11:53;;;;;;;6.40;5.70;;;;;;;14.07;64.97;99063.70;218160;1259;139428;-74
2023/04/23 19:16:56;;;;;;;5.80;5.30;;;;;;;13.92;65.35;99061.08;217249;1260;139955;-76
2023/04/23 19:22:02;;;;;;;7.60;6.90;;;;;;;13.74;65.76;99066.27;217556;1259;139892;-76
2023/04/23 19:27:06;;;;;;;6.20;5.60;;;;;;;13.62;66.13;99065.92;217853;1259;139969;-79
2023/04/23 19:32:08;;;;;;;6.80;5.50;;;;;;;13.50;66.20;99068.34;218766;1257;140551;-76
2023/04/23 19:37:10;;;;;;;6.90;6.00;;;;;;;13.27;66.47;99065.63;218660;1256;140054;-80
2023/04/23 19:42:13;;;;;;;7.30;6.40;;;;;;;13.04;66.73;99063.26;218170;1257;141523;-79
2023/04/23 19:47:16;;;;;;;7.60;6.40;;;;;;;12.83;67.18;99065.96;219113;1257;140546;-82
2023/04/23 19:52:24;;;;;;;10.20;7.80;;;;;;;12.68;67.51;99062.39;217752;1256;140331;-78
2023/04/23 19:57:27;;;;;;;12.90;8.00;;;;;;;12.53;67.89;99063.21;217910;1257;141029;-84
2023/04/23 20:02:31;;;;;;;9.40;8.50;;;;;;;12.44;68.23;99062.25;218418;1257;140742;-82
2023/04/23 20:07:37;;;;;;;13.70;9.70;;;;;;;12.38;68.41;99061.14;218521;1257;140038;-84
2023/04/23 20:12:42;;;;;;;20.40;12.90;;;;;;;12.25;68.56;99061.38;218196;1257;140113;-81
2023/04/23 20:17:45;;;;;;;24.90;15.30;;;;;;;12.18;68.92;99059.96;217743;1257;140895;-75
2023/04/23 20:22:50;;;;;;;20.50;13.80;;;;;;;12.13;68.94;99054.76;217888;1259;139867;-74
2023/04/23 20:27:55;;;;;;;18.20;12.50;;;;;;;12.03;68.91;99048.73;220390;1256;140354;-79
2023/04/23 20:32:59;;;;;;;19.10;12.20;;;;;;;11.94;69.24;99040.57;218032;1259;140674;-71
2023/04/23 20:38:02;;;;;;;17.40;10.80;;;;;;;11.80;69.49;99042.59;219546;1256;141192;-75
2023/04/23 20:43:07;;;;;;;18.50;13.60;;;;;;;11.65;69.65;99045.35;219288;1257;140756;-74
2023/04/23 20:48:11;;;;;;;18.80;12.70;;;;;;;11.58;70.21;99046.70;218926;1257;140897;-73
2023/04/23 20:53:15;;;;;;;17.40;11.80;;;;;;;11.57;70.30;99040.45;217857;1257;140492;-70
2023/04/23 20:58:19;;;;;;;16.50;11.80;;;;;;;11.50;70.21;99039.02;218588;1259;142536;-73
2023/04/23 21:03:22;;;;;;;14.60;9.90;;;;;;;11.43;70.49;99035.34;217842;1262;140186;-73
2023/04/23 21:08:31;;;;;;;14.40;11.10;;;;;;;11.24;70.65;99031.54;217890;1260;141121;-73
2023/04/23 21:13:36;;;;;;;11.40;9.60;;;;;;;11.12;71.20;99032.45;218690;1256;140854;-74
2023/04/23 21:18:41;;;;;;;8.20;7.30;;;;;;;11.02;71.45;99028.81;217980;1260;139963;-74
2023/04/23 21:23:45;;;;;;;10.40;8.90;;;;;;;10.93;71.67;99025.27;217664;1257;141720;-71
2023/04/23 21:28:48;;;;;;;9.00;8.10;;;;;;;10.80;71.80;99020.29;217813;1257;141809;-72
2023/04/23 21:33:52;;;;;;;9.40;8.40;;;;;;;10.67;72.07;99018.31;217924;1260;139742;-74
2023/04/23 21:39:00;;;;;;;9.10;7.10;;;;;;;10.61;72.41;99009.90;217815;1259;140664;-74
2023/04/23 21:44:04;;;;;;;19.70;9.50;;;;;;;10.52;72.60;99009.64;217783;1259;141373;-72
2023/04/23 21:49:07;;;;;;;8.90;8.00;;;;;;;10.44;72.91;99004.39;218973;1257;139701;-77
2023/04/23 21:54:12;;;;;;;11.10;8.50;;;;;;;10.41;73.35;99000.85;217767;1260;154148;-76
2023/04/23 21:59:18;;;;;;;9.90;8.60;;;;;;;10.37;73.50;99002.79;218626;1260;142199;-77
2023/04/23 22:04:22;;;;;;;15.70;8.50;;;;;;;10.32;73.91;98998.80;219164;1257;139727;-76
2023/04/23 22:09:26;;;;;;;10.20;8.10;;;;;;;10.31;74.19;98997.61;217924;1256;140102;-78
2023/04/23 22:14:29;;;;;;;12.20;8.10;;;;;;;10.30;74.34;98998.40;218429;1257;140819;-77
2023/04/23 22:19:33;;;;;;;11.20;9.20;;;;;;;10.25;74.40;99000.90;217881;1257;140427;-78
2023/04/23 22:24:37;;;;;;;13.30;9.50;;;;;;;10.21;74.70;99001.54;220318;1257;140542;-78
2023/04/23 22:29:40;;;;;;;15.10;9.60;;;;;;;10.19;74.89;98992.55;218366;1259;141393;-76
2023/04/23 22:34:44;;;;;;;11.00;9.20;;;;;;;10.18;75.12;98992.92;218429;1259;139684;-77
2023/04/23 22:39:47;;;;;;;11.70;8.00;;;;;;;10.20;75.26;98985.55;217827;1256;139918;-78
2023/04/23 22:44:50;;;;;;;8.00;7.20;;;;;;;10.20;75.41;98978.34;220163;1256;141273;-86
2023/04/23 22:49:53;;;;;;;9.50;8.40;;;;;;;10.18;75.52;98979.73;219439;1257;140190;-80
2023/04/23 22:54:56;;;;;;;11.20;9.00;;;;;;;10.19;75.67;98973.27;218014;1257;140091;-80
2023/04/23 23:00:00;;;;;;;14.40;10.20;;;;;;;10.22;75.74;98971.19;218708;1257;140312;-81
2023/04/23 23:05:04;;;;;;;12.20;9.80;;;;;;;10.26;75.71;98969.37;217846;1258;140671;-71
2023/04/23 23:10:10;;;;;;;12.00;9.70;;;;;;;10.27;75.76;98962.03;217834;1257;139700;-81